Time;durP1;ratioP1;P1;durP2;ratioP2;P2;SDS_P1;SDS_P2;PMS_P1;PMS_P2;Temp;Humidity;BMP_temperature;BMP_pressure;BME280_temperature;BME280_humidity;BME280_pressure;Samples;Min_cycle;Max_cycle;Signal;HPM_P1;HPM_P2
2021/07/30 00:00:16;;;;;;;8.95;5.82;;;20.20;99.90;;;;;;4362197;32;20068;-72
2021/07/30 00:02:43;;;;;;;9.13;5.65;;;20.20;99.90;;;;;;4362224;32;20076;-73
2021/07/30 00:05:09;;;;;;;7.93;5.87;;;20.20;99.90;;;;;;4347930;32;20090;-72
2021/07/30 00:07:35;;;;;;;7.87;6.05;;;20.20;99.90;;;;;;4336115;32;20453;-72
2021/07/30 00:10:03;;;;;;;7.75;5.93;;;20.20;99.90;;;;;;4323872;32;20516;-72
2021/07/30 00:12:29;;;;;;;7.43;5.70;;;20.10;99.90;;;;;;4348179;32;20167;-73
2021/07/30 00:14:55;;;;;;;7.85;6.07;;;20.10;99.90;;;;;;4335678;32;20434;-72
2021/07/30 00:17:21;;;;;;;7.80;5.93;;;20.10;99.90;;;;;;4335383;32;20073;-72
2021/07/30 00:19:47;;;;;;;8.10;5.87;;;20.10;99.90;;;;;;4347898;32;20525;-72
2021/07/30 00:22:14;;;;;;;9.02;6.25;;;20.00;99.90;;;;;;4335376;32;20078;-73
2021/07/30 00:24:40;;;;;;;8.18;5.65;;;20.00;99.90;;;;;;4336203;32;20175;-72
2021/07/30 00:27:06;;;;;;;10.95;5.90;;;19.90;99.90;;;;;;4348694;32;20074;-72
2021/07/30 00:29:32;;;;;;;7.65;5.97;;;19.90;99.90;;;;;;4323787;32;20077;-72
2021/07/30 00:31:58;;;;;;;7.50;5.70;;;19.90;99.90;;;;;;4347634;32;20070;-72
2021/07/30 00:34:24;;;;;;;8.02;6.30;;;20.00;99.90;;;;;;4323523;32;20093;-73
2021/07/30 00:36:51;;;;;;;9.05;5.93;;;20.00;99.90;;;;;;4335541;32;20582;-71
2021/07/30 00:39:17;;;;;;;7.60;5.70;;;19.90;99.90;;;;;;4323602;32;20169;-72
2021/07/30 00:41:43;;;;;;;9.50;6.00;;;19.90;99.90;;;;;;4335440;32;20181;-72
2021/07/30 00:44:09;;;;;;;8.23;6.10;;;19.80;99.90;;;;;;4335387;32;20083;-72
2021/07/30 00:46:36;;;;;;;8.38;6.07;;;19.90;99.90;;;;;;4348179;32;20070;-73
2021/07/30 00:49:03;;;;;;;8.02;6.05;;;19.80;99.90;;;;;;4335712;32;20122;-72
2021/07/30 00:51:29;;;;;;;9.07;6.00;;;19.90;99.90;;;;;;4347056;32;20055;-72
2021/07/30 00:53:55;;;;;;;8.75;6.25;;;19.90;99.90;;;;;;4310984;32;20074;-72
2021/07/30 00:56:23;;;;;;;7.97;5.78;;;19.90;99.90;;;;;;4335557;32;20086;-72
2021/07/30 00:58:49;;;;;;;7.70;5.65;;;19.90;99.90;;;;;;4335891;32;20078;-72
2021/07/30 01:01:17;;;;;;;10.27;6.30;;;19.80;99.90;;;;;;4335488;32;20109;-73
2021/07/30 01:03:43;;;;;;;7.82;6.28;;;19.80;99.90;;;;;;4335798;32;20073;-72
2021/07/30 01:06:09;;;;;;;9.13;6.18;;;19.80;99.90;;;;;;4335217;32;20093;-72
2021/07/30 01:08:37;;;;;;;10.75;6.78;;;19.80;99.90;;;;;;4323252;32;20101;-73
2021/07/30 01:11:03;;;;;;;7.47;5.62;;;19.80;99.90;;;;;;4335532;32;20097;-72
2021/07/30 01:13:29;;;;;;;9.40;6.10;;;19.90;99.90;;;;;;4347025;32;20462;-72
2021/07/30 01:15:55;;;;;;;8.70;6.70;;;19.90;99.90;;;;;;4335045;32;20500;-72
2021/07/30 01:18:21;;;;;;;7.60;6.12;;;19.90;99.90;;;;;;4335479;32;20105;-73
2021/07/30 01:21:24;;;;;;;7.75;6.15;;;19.90;99.90;;;;;;4335404;32;20585;-72
2021/07/30 01:23:51;;;;;;;9.70;6.53;;;19.90;99.90;;;;;;4325313;32;20086;-71
2021/07/30 01:26:18;;;;;;;9.13;5.75;;;19.90;99.90;;;;;;4323341;32;20183;-72
2021/07/30 01:28:44;;;;;;;7.45;6.07;;;20.00;99.90;;;;;;4335349;32;20090;-72
2021/07/30 01:31:11;;;;;;;8.35;5.87;;;19.90;99.90;;;;;;4313623;32;20101;-74
2021/07/30 01:33:37;;;;;;;7.35;6.40;;;20.00;99.90;;;;;;4350016;32;20074;-72
2021/07/30 01:36:04;;;;;;;8.15;6.05;;;20.00;99.90;;;;;;4338534;32;20105;-74
2021/07/30 01:38:31;;;;;;;10.00;6.37;;;20.10;99.90;;;;;;4325922;32;20469;-72
2021/07/30 01:41:09;;;;;;;6.93;5.93;;;20.10;99.90;;;;;;4338107;32;20094;-72
2021/07/30 01:43:40;;;;;;;10.55;6.10;;;20.20;99.90;;;;;;4351967;32;20082;-72
2021/07/30 01:46:07;;;;;;;8.02;5.95;;;20.30;99.90;;;;;;4338421;32;20075;-72
2021/07/30 01:48:33;;;;;;;10.57;6.85;;;20.30;99.90;;;;;;4350461;32;20078;-72
2021/07/30 01:50:59;;;;;;;10.07;6.25;;;20.30;99.90;;;;;;4338021;32;20507;-72
2021/07/30 01:53:25;;;;;;;9.15;6.32;;;20.30;99.90;;;;;;4337862;32;20079;-72
2021/07/30 01:55:51;;;;;;;7.93;6.20;;;20.40;99.90;;;;;;4337668;32;20077;-72
2021/07/30 01:58:18;;;;;;;9.20;6.30;;;20.40;99.90;;;;;;4337871;32;20509;-72
2021/07/30 02:00:44;;;;;;;8.13;6.05;;;20.40;99.90;;;;;;4338108;32;20082;-72
2021/07/30 02:03:10;;;;;;;9.60;6.68;;;20.40;99.90;;;;;;4349843;32;20529;-72
2021/07/30 02:05:37;;;;;;;7.75;6.10;;;20.40;99.90;;;;;;4349750;32;20098;-72
2021/07/30 02:08:05;;;;;;;9.05;6.47;;;20.50;99.90;;;;;;4349882;32;20086;-73
2021/07/30 02:10:32;;;;;;;10.27;6.47;;;20.40;99.90;;;;;;4325089;32;20088;-73
2021/07/30 02:15:43;;;;;;;8.48;6.20;;;20.50;99.90;;;;;;4352032;32;20098;-73
2021/07/30 02:18:10;;;;;;;10.23;7.03;;;20.50;99.90;;;;;;4349487;32;20163;-73
2021/07/30 02:20:37;;;;;;;8.38;6.50;;;20.50;99.90;;;;;;4337192;32;20074;-72
2021/07/30 02:23:03;;;;;;;9.70;6.62;;;20.50;99.90;;;;;;4324903;32;20507;-71
2021/07/30 02:25:30;;;;;;;7.82;6.18;;;20.60;99.90;;;;;;4349742;32;20089;-72
2021/07/30 02:27:56;;;;;;;10.13;7.37;;;20.60;99.90;;;;;;4349731;32;20157;-72
2021/07/30 02:30:22;;;;;;;10.05;6.47;;;20.60;99.90;;;;;;4349593;32;20082;-72
2021/07/30 02:32:48;;;;;;;8.13;6.40;;;20.60;99.90;;;;;;4349503;32;20070;-71
2021/07/30 02:35:15;;;;;;;8.48;6.50;;;20.70;99.90;;;;;;4349710;32;20086;-73
2021/07/30 02:37:41;;;;;;;9.05;6.75;;;20.70;99.90;;;;;;4324458;32;20560;-72
2021/07/30 02:40:08;;;;;;;9.55;7.47;;;20.80;99.90;;;;;;4336875;32;20063;-72
2021/07/30 02:42:35;;;;;;;10.23;6.43;;;20.80;99.90;;;;;;4324811;32;20094;-72
2021/07/30 02:45:01;;;;;;;9.90;7.15;;;20.80;99.90;;;;;;4337172;32;20098;-72
2021/07/30 02:47:27;;;;;;;7.78;6.30;;;20.80;99.90;;;;;;4336774;32;20155;-72
2021/07/30 02:49:53;;;;;;;8.38;7.20;;;20.80;99.90;;;;;;4349774;32;20105;-72
2021/07/30 02:52:19;;;;;;;8.65;6.80;;;20.90;99.90;;;;;;4336680;32;20086;-72
2021/07/30 02:54:45;;;;;;;9.00;6.72;;;20.90;99.90;;;;;;4337950;32;20152;-72
2021/07/30 02:57:11;;;;;;;10.18;6.82;;;20.90;99.90;;;;;;4354647;32;20073;-72
2021/07/30 02:59:38;;;;;;;9.20;6.50;;;20.90;99.90;;;;;;4354522;32;20170;-71
2021/07/30 03:02:04;;;;;;;8.80;6.68;;;21.00;99.90;;;;;;4351070;32;20138;-72
2021/07/30 03:04:31;;;;;;;10.10;7.25;;;21.00;99.90;;;;;;4348444;32;20153;-73
2021/07/30 03:06:57;;;;;;;7.97;6.30;;;21.00;99.90;;;;;;4346003;32;20478;-72
2021/07/30 03:09:23;;;;;;;7.87;6.15;;;21.10;99.90;;;;;;4358445;32;20155;-72
2021/07/30 03:11:49;;;;;;;10.45;6.68;;;21.10;99.90;;;;;;4354879;32;20105;-72
2021/07/30 03:14:15;;;;;;;7.50;5.75;;;21.10;99.90;;;;;;4350825;32;20063;-72
2021/07/30 03:16:41;;;;;;;7.80;6.50;;;21.10;99.90;;;;;;4348940;32;20062;-72
2021/07/30 03:19:08;;;;;;;8.98;5.80;;;21.20;99.90;;;;;;4336548;32;20145;-72
2021/07/30 03:21:34;;;;;;;9.23;6.10;;;21.20;99.90;;;;;;4349047;32;20179;-72
2021/07/30 03:24:00;;;;;;;8.57;6.20;;;21.30;99.90;;;;;;4336825;32;20460;-72
2021/07/30 03:26:26;;;;;;;9.05;6.68;;;21.30;99.90;;;;;;4349028;32;20085;-72
2021/07/30 03:28:52;;;;;;;7.68;5.93;;;21.30;99.90;;;;;;4336710;32;20094;-72
2021/07/30 03:31:18;;;;;;;8.25;5.90;;;21.40;99.90;;;;;;4336274;32;20094;-72
2021/07/30 03:33:44;;;;;;;9.07;5.72;;;21.40;99.90;;;;;;4336122;32;20437;-72
2021/07/30 03:36:11;;;;;;;9.77;6.35;;;21.40;99.90;;;;;;4336599;32;20106;-71
2021/07/30 03:38:37;;;;;;;8.15;6.47;;;21.40;99.90;;;;;;4348633;32;20085;-72
2021/07/30 03:41:04;;;;;;;7.55;5.75;;;21.40;99.90;;;;;;4348689;32;20174;-72
2021/07/30 03:43:31;;;;;;;9.10;6.50;;;21.50;99.90;;;;;;4324532;32;20096;-72
2021/07/30 03:45:57;;;;;;;9.65;6.50;;;21.50;99.90;;;;;;4348421;32;20071;-72
2021/07/30 03:48:24;;;;;;;8.02;6.15;;;21.60;99.90;;;;;;4335857;32;20067;-72
2021/07/30 03:50:50;;;;;;;7.12;5.22;;;21.60;99.90;;;;;;4336329;32;20074;-71
2021/07/30 03:53:16;;;;;;;7.10;5.90;;;21.70;99.90;;;;;;4347589;32;20151;-72
2021/07/30 03:55:43;;;;;;;7.68;5.15;;;21.80;99.90;;;;;;4336190;32;20070;-72
2021/07/30 03:58:09;;;;;;;7.35;5.55;;;21.80;99.90;;;;;;4324029;32;20102;-72
2021/07/30 04:00:38;;;;;;;8.27;5.70;;;21.90;99.90;;;;;;4311883;32;20527;-72
2021/07/30 04:03:04;;;;;;;7.80;5.22;;;22.00;99.90;;;;;;4323495;32;20129;-71
2021/07/30 04:05:30;;;;;;;6.82;5.10;;;22.00;99.90;;;;;;4348215;32;20066;-72
2021/07/30 04:07:56;;;;;;;7.07;5.70;;;22.10;99.90;;;;;;4348152;32;20073;-72
2021/07/30 04:10:23;;;;;;;6.93;5.40;;;22.20;99.90;;;;;;4348141;32;20070;-72
2021/07/30 04:12:49;;;;;;;8.48;5.07;;;22.40;99.90;;;;;;4335786;32;20143;-72
2021/07/30 04:15:15;;;;;;;7.57;5.25;;;22.50;99.90;;;;;;4348006;32;20073;-72
2021/07/30 04:17:42;;;;;;;7.90;5.70;;;22.50;99.90;;;;;;4347995;32;20449;-72
2021/07/30 04:20:09;;;;;;;7.90;5.55;;;22.60;99.90;;;;;;4348432;32;20161;-72
2021/07/30 04:22:36;;;;;;;8.85;5.80;;;22.70;99.90;;;;;;4323481;32;20094;-72
2021/07/30 04:25:03;;;;;;;9.20;6.22;;;22.70;99.90;;;;;;4323498;32;20578;-72
2021/07/30 04:27:30;;;;;;;7.18;5.93;;;22.70;99.90;;;;;;4323355;32;20154;-72
2021/07/30 04:29:56;;;;;;;8.05;6.30;;;22.70;99.90;;;;;;4335871;32;20536;-72
2021/07/30 04:32:22;;;;;;;8.98;5.47;;;22.80;99.90;;;;;;4347699;32;20202;-72
2021/07/30 04:34:48;;;;;;;8.05;5.32;;;22.40;99.90;;;;;;4335679;32;20073;-72
2021/07/30 04:37:15;;;;;;;7.15;5.90;;;22.50;99.90;;;;;;4348099;32;20154;-71
2021/07/30 04:39:41;;;;;;;8.57;5.87;;;22.60;99.90;;;;;;4348074;32;20151;-72
2021/07/30 04:42:07;;;;;;;7.45;6.07;;;22.50;99.90;;;;;;4347764;32;20153;-72
2021/07/30 04:44:34;;;;;;;8.68;5.70;;;22.50;99.90;;;;;;4347709;32;20157;-72
2021/07/30 04:47:01;;;;;;;11.25;6.15;;;22.70;99.90;;;;;;4323398;32;20079;-72
2021/07/30 04:49:27;;;;;;;8.95;5.28;;;22.60;99.90;;;;;;4323347;32;20070;-72
2021/07/30 04:51:54;;;;;;;8.05;5.65;;;22.70;99.90;;;;;;4310569;32;20079;-72
2021/07/30 04:54:20;;;;;;;10.27;6.20;;;23.40;99.90;;;;;;4335467;32;20520;-73
2021/07/30 04:56:46;;;;;;;5.75;5.03;;;23.90;99.90;;;;;;4335274;32;20158;-71
2021/07/30 04:59:12;;;;;;;10.75;6.10;;;25.20;99.90;;;;;;4335036;32;20136;-72
2021/07/30 05:01:42;;;;;;;6.28;4.00;;;26.00;99.90;;;;;;4335487;32;20186;-72
2021/07/30 05:04:11;;;;;;;8.23;5.12;;;25.30;99.90;;;;;;4347862;32;20525;-72
2021/07/30 05:06:37;;;;;;;9.55;6.12;;;25.50;99.90;;;;;;4335346;32;20543;-72
2021/07/30 05:09:03;;;;;;;8.50;5.55;;;25.60;99.90;;;;;;4347974;32;20098;-73
2021/07/30 05:11:30;;;;;;;7.70;5.80;;;25.20;99.90;;;;;;4335071;32;20527;-72
2021/07/30 05:13:56;;;;;;;6.40;3.87;;;25.90;99.90;;;;;;4335246;32;20071;-72
2021/07/30 05:16:22;;;;;;;7.28;4.12;;;25.80;99.90;;;;;;4361204;32;20106;-71
2021/07/30 05:19:49;;;;;;;7.32;5.10;;;25.80;99.90;;;;;;4348028;32;20074;-72
2021/07/30 05:23:15;;;;;;;8.23;5.97;;;25.60;99.90;;;;;;4361141;32;20074;-72
2021/07/30 05:26:42;;;;;;;7.05;5.65;;;25.60;99.90;;;;;;4361819;32;20090;-72
2021/07/30 05:29:08;;;;;;;9.40;6.78;;;25.60;99.90;;;;;;4361116;32;20090;-72
2021/07/30 05:31:35;;;;;;;7.35;5.57;;;26.00;99.90;;;;;;4335521;32;20485;-72
2021/07/30 05:34:01;;;;;;;5.47;4.37;;;26.40;99.90;;;;;;4335331;32;20145;-71
2021/07/30 05:36:27;;;;;;;9.52;6.18;;;26.40;99.90;;;;;;4347535;32;20175;-72
2021/07/30 05:38:54;;;;;;;4.05;3.05;;;26.40;99.90;;;;;;4334990;32;20089;-72
2021/07/30 05:41:20;;;;;;;6.93;5.12;;;26.80;99.90;;;;;;4335240;32;20086;-72
2021/07/30 05:43:46;;;;;;;10.38;7.05;;;25.50;99.90;;;;;;4347248;32;20216;-72
2021/07/30 05:46:14;;;;;;;10.07;7.57;;;24.90;99.90;;;;;;4322831;32;20082;-72
2021/07/30 05:48:40;;;;;;;9.02;6.85;;;25.40;99.90;;;;;;4335306;32;20090;-72
2021/07/30 05:51:07;;;;;;;7.68;6.25;;;25.90;99.90;;;;;;4322532;32;20070;-72
2021/07/30 05:53:33;;;;;;;6.18;5.00;;;26.90;99.90;;;;;;4334663;32;20153;-71
2021/07/30 05:56:00;;;;;;;9.20;6.68;;;27.00;99.90;;;;;;4322660;32;20457;-72
2021/07/30 05:58:27;;;;;;;8.70;6.03;;;26.00;99.90;;;;;;4310736;32;20086;-72
2021/07/30 06:00:53;;;;;;;8.43;6.30;;;25.80;99.90;;;;;;4335197;32;20067;-72
2021/07/30 06:03:19;;;;;;;9.43;5.15;;;26.20;99.90;;;;;;4310926;32;20101;-72
2021/07/30 06:05:45;;;;;;;9.15;6.22;;;26.60;99.90;;;;;;4360757;32;20144;-72
2021/07/30 06:08:13;;;;;;;7.97;6.10;;;27.10;99.90;;;;;;4346964;32;20106;-72
2021/07/30 06:10:39;;;;;;;7.35;5.87;;;26.50;99.90;;;;;;4334902;32;20071;-72
2021/07/30 06:13:05;;;;;;;8.45;5.78;;;26.20;99.90;;;;;;4347114;32;20170;-72
2021/07/30 06:15:31;;;;;;;10.05;5.90;;;25.90;99.90;;;;;;4335329;32;20171;-73
2021/07/30 06:17:57;;;;;;;9.55;6.60;;;26.60;99.90;;;;;;4349691;32;20082;-72
2021/07/30 06:20:24;;;;;;;8.57;5.25;;;27.00;99.90;;;;;;4349558;32;20106;-72
2021/07/30 06:22:51;;;;;;;10.07;5.82;;;26.60;99.90;;;;;;4337185;32;20102;-72
2021/07/30 06:25:17;;;;;;;8.00;5.75;;;26.90;99.90;;;;;;4349974;32;20521;-71
2021/07/30 06:27:43;;;;;;;8.13;5.75;;;26.80;99.90;;;;;;4325394;32;20154;-72
2021/07/30 06:30:10;;;;;;;9.27;5.97;;;26.30;99.90;;;;;;4342711;32;20521;-66
2021/07/30 06:32:40;;;;;;;8.95;5.80;;;25.10;99.90;;;;;;4345698;32;20520;-72
2021/07/30 06:35:07;;;;;;;8.00;5.28;;;25.40;99.90;;;;;;4329741;32;20516;-72
2021/07/30 06:37:35;;;;;;;7.30;5.40;;;25.60;99.90;;;;;;4350377;32;20501;-70
2021/07/30 06:40:01;;;;;;;7.10;5.45;;;25.50;99.90;;;;;;4358686;32;20071;-69
2021/07/30 06:42:28;;;;;;;7.05;5.62;;;25.40;99.90;;;;;;4331465;32;20500;-69
2021/07/30 06:44:54;;;;;;;5.72;4.65;;;25.10;99.90;;;;;;4353729;32;20159;-70
2021/07/30 06:47:22;;;;;;;6.80;5.70;;;25.10;99.90;;;;;;4345488;32;20069;-70
2021/07/30 06:49:49;;;;;;;7.95;5.85;;;24.90;99.90;;;;;;4350483;32;20137;-69
2021/07/30 06:52:15;;;;;;;7.65;5.90;;;24.70;99.90;;;;;;4359108;32;20062;-69
2021/07/30 06:54:43;;;;;;;7.35;5.37;;;24.80;99.90;;;;;;4339903;32;20082;-67
2021/07/30 06:57:09;;;;;;;8.02;6.05;;;25.10;99.90;;;;;;4333238;32;20511;-70
2021/07/30 06:59:35;;;;;;;6.82;5.68;;;25.10;99.90;;;;;;4348981;32;20101;-70
2021/07/30 07:02:02;;;;;;;7.07;5.40;;;24.70;99.90;;;;;;4359913;32;20587;-68
2021/07/30 07:04:29;;;;;;;6.57;5.62;;;24.70;99.90;;;;;;4358388;32;20085;-70
2021/07/30 07:06:55;;;;;;;9.25;5.93;;;25.20;99.90;;;;;;4350119;32;20158;-70
2021/07/30 07:09:21;;;;;;;7.70;5.75;;;24.70;99.90;;;;;;4334344;32;20166;-70
2021/07/30 07:11:47;;;;;;;8.45;6.00;;;25.00;99.90;;;;;;4349794;32;20073;-68
2021/07/30 07:14:14;;;;;;;7.82;5.90;;;25.50;99.90;;;;;;4327802;32;20519;-69
2021/07/30 07:16:43;;;;;;;7.00;6.30;;;25.30;99.90;;;;;;4347451;32;20174;-68
2021/07/30 07:19:10;;;;;;;7.15;5.50;;;24.90;99.90;;;;;;4327753;32;20090;-69
2021/07/30 07:21:37;;;;;;;7.07;5.90;;;25.00;99.90;;;;;;4324691;32;20105;-69
2021/07/30 07:24:04;;;;;;;10.80;6.22;;;25.30;99.90;;;;;;4328649;32;20090;-68
2021/07/30 07:26:32;;;;;;;6.75;5.32;;;25.80;99.90;;;;;;4326408;32;20093;-67
2021/07/30 07:28:58;;;;;;;7.93;6.00;;;25.10;99.90;;;;;;4338987;32;20516;-68
2021/07/30 07:31:24;;;;;;;6.97;5.62;;;25.40;99.90;;;;;;4363517;32;20092;-68
2021/07/30 07:33:50;;;;;;;8.20;5.30;;;25.60;99.90;;;;;;4334518;32;20116;-67
2021/07/30 07:36:17;;;;;;;7.78;5.62;;;25.20;99.90;;;;;;4356218;32;20093;-71
2021/07/30 07:38:43;;;;;;;8.95;6.25;;;25.40;99.90;;;;;;4338960;32;20552;-72
2021/07/30 07:41:10;;;;;;;8.45;5.85;;;25.70;99.90;;;;;;4357554;32;20075;-71
2021/07/30 07:43:37;;;;;;;8.02;6.05;;;26.20;99.90;;;;;;4352909;32;20059;-72
2021/07/30 07:46:03;;;;;;;7.80;5.85;;;26.00;99.90;;;;;;4347866;32;20493;-71
2021/07/30 07:48:29;;;;;;;7.65;5.85;;;25.40;99.90;;;;;;4361616;32;20591;-71
2021/07/30 07:50:55;;;;;;;6.43;5.60;;;25.60;99.90;;;;;;4337391;32;20069;-70
2021/07/30 07:53:22;;;;;;;6.00;5.35;;;25.90;99.90;;;;;;4344251;32;20173;-70
2021/07/30 07:55:51;;;;;;;8.23;5.87;;;25.90;99.90;;;;;;4346245;32;20468;-71
2021/07/30 07:58:17;;;;;;;7.00;5.90;;;25.60;99.90;;;;;;4363273;32;20094;-71
2021/07/30 08:00:43;;;;;;;7.95;5.87;;;25.60;99.90;;;;;;4348064;32;20100;-70
2021/07/30 08:03:10;;;;;;;8.75;5.45;;;26.10;99.90;;;;;;4361087;32;20074;-67
2021/07/30 08:05:38;;;;;;;7.62;6.10;;;26.40;99.90;;;;;;4348634;32;20590;-68
2021/07/30 08:08:04;;;;;;;8.00;5.30;;;26.40;99.90;;;;;;4325250;32;20461;-67
2021/07/30 08:10:31;;;;;;;8.60;5.95;;;26.40;99.90;;;;;;4347617;32;20074;-67
2021/07/30 08:12:57;;;;;;;6.82;5.68;;;26.10;99.90;;;;;;4334954;32;20082;-66
2021/07/30 08:15:24;;;;;;;6.72;5.60;;;26.90;99.90;;;;;;4368429;32;20085;-70
2021/07/30 08:17:50;;;;;;;7.00;5.35;;;26.60;99.90;;;;;;4325808;32;20081;-71
2021/07/30 08:20:16;;;;;;;7.57;5.80;;;25.90;99.90;;;;;;4337134;32;20224;-70
2021/07/30 08:22:44;;;;;;;7.20;5.40;;;26.30;99.90;;;;;;4348247;32;20081;-69
2021/07/30 08:25:12;;;;;;;7.55;5.35;;;26.60;99.90;;;;;;4352870;32;20067;-70
2021/07/30 08:27:39;;;;;;;7.50;5.40;;;26.30;99.90;;;;;;4349505;32;20078;-70
2021/07/30 08:30:06;;;;;;;10.43;6.53;;;26.80;99.90;;;;;;4361854;32;20556;-72
2021/07/30 08:32:35;;;;;;;8.30;5.65;;;26.90;99.90;;;;;;4349385;32;20082;-71
2021/07/30 08:35:02;;;;;;;6.93;5.45;;;27.10;99.90;;;;;;4336934;32;20079;-72
2021/07/30 08:37:28;;;;;;;6.78;5.40;;;27.00;99.90;;;;;;4330545;32;20090;-73
2021/07/30 08:39:54;;;;;;;7.55;5.03;;;26.60;99.90;;;;;;4336264;32;20101;-73
2021/07/30 08:42:20;;;;;;;7.70;5.45;;;26.20;99.90;;;;;;4343751;32;20500;-73
2021/07/30 08:44:46;;;;;;;9.77;5.85;;;26.40;99.90;;;;;;4348692;32;20111;-72
2021/07/30 08:47:14;;;;;;;6.80;5.47;;;27.10;99.90;;;;;;4335638;32;20501;-73
2021/07/30 08:49:40;;;;;;;7.40;5.45;;;26.80;99.90;;;;;;4329714;32;20528;-73
2021/07/30 08:52:10;;;;;;;10.90;5.47;;;27.30;99.90;;;;;;4343053;32;20082;-69
2021/07/30 08:54:37;;;;;;;7.30;5.78;;;27.00;99.90;;;;;;4337105;32;20567;-68
2021/07/30 08:57:11;;;;;;;8.48;6.00;;;27.40;99.90;;;;;;4332737;32;20109;-69
2021/07/30 08:59:39;;;;;;;8.32;5.85;;;26.80;99.90;;;;;;4344884;32;20081;-70
2021/07/30 09:02:08;;;;;;;7.25;5.40;;;26.80;99.90;;;;;;4337095;32;20134;-69
2021/07/30 09:04:35;;;;;;;6.43;4.90;;;26.90;99.90;;;;;;4337146;32;20081;-70
2021/07/30 09:07:02;;;;;;;6.72;5.37;;;27.10;99.90;;;;;;4333710;32;20114;-70
2021/07/30 09:09:35;;;;;;;6.50;5.35;;;27.30;99.90;;;;;;4317648;32;20069;-73
2021/07/30 09:12:03;;;;;;;10.38;5.70;;;26.60;99.90;;;;;;4348777;32;20109;-69
2021/07/30 09:14:38;;;;;;;9.05;6.20;;;27.30;99.90;;;;;;4324435;32;20089;-71
2021/07/30 09:17:05;;;;;;;7.05;5.65;;;27.30;99.90;;;;;;4337599;32;20067;-71
2021/07/30 09:19:32;;;;;;;6.47;5.70;;;27.10;99.90;;;;;;4336499;32;20072;-69
2021/07/30 09:22:09;;;;;;;7.07;5.30;;;27.30;99.90;;;;;;4340893;32;20101;-71
2021/07/30 09:24:40;;;;;;;7.82;5.87;;;26.80;99.90;;;;;;4361006;32;20206;-71
2021/07/30 09:27:10;;;;;;;6.55;5.35;;;27.80;99.90;;;;;;4349113;32;20089;-70
2021/07/30 09:29:38;;;;;;;6.53;5.37;;;27.80;99.90;;;;;;4335518;32;20610;-69
2021/07/30 09:32:15;;;;;;;8.93;6.25;;;27.70;99.90;;;;;;4348224;32;20133;-70
2021/07/30 09:34:47;;;;;;;6.32;5.37;;;27.70;98.10;;;;;;4336449;32;20063;-77
2021/07/30 09:37:22;;;;;;;7.32;5.15;;;27.30;97.90;;;;;;4348805;32;20063;-80
2021/07/30 09:39:50;;;;;;;9.37;5.67;;;27.00;99.90;;;;;;4325419;32;20436;-76
2021/07/30 09:42:21;;;;;;;7.90;5.62;;;27.40;99.90;;;;;;4361926;32;20146;-76
2021/07/30 09:45:02;;;;;;;7.93;5.60;;;27.30;99.80;;;;;;4365589;32;20113;-75
2021/07/30 09:47:34;;;;;;;11.68;5.72;;;27.70;99.10;;;;;;4331867;32;20497;-74
2021/07/30 09:50:07;;;;;;;7.03;5.55;;;28.10;97.00;;;;;;4332673;32;20143;-75
2021/07/30 09:52:43;;;;;;;9.93;5.68;;;28.30;96.30;;;;;;4353278;32;20074;-74
2021/07/30 09:55:14;;;;;;;7.32;5.47;;;28.50;95.50;;;;;;4352337;32;20077;-74
2021/07/30 09:57:42;;;;;;;6.75;5.87;;;28.60;94.30;;;;;;4351808;32;20070;-76
2021/07/30 10:00:15;;;;;;;6.68;5.00;;;28.20;92.10;;;;;;4334204;32;20497;-74
2021/07/30 10:02:45;;;;;;;6.72;5.65;;;28.30;93.90;;;;;;4343897;32;20066;-75
2021/07/30 10:05:14;;;;;;;7.37;6.20;;;28.20;93.30;;;;;;4338426;32;20081;-76
2021/07/30 10:07:41;;;;;;;7.70;5.85;;;27.80;94.00;;;;;;4350861;32;20066;-73
2021/07/30 10:10:15;;;;;;;7.45;5.72;;;27.60;95.80;;;;;;4346871;32;20078;-76
2021/07/30 10:12:48;;;;;;;6.62;5.18;;;28.00;91.80;;;;;;4339878;32;20505;-72
2021/07/30 10:15:14;;;;;;;7.82;5.25;;;27.80;92.00;;;;;;4340575;32;20070;-73
2021/07/30 10:17:47;;;;;;;7.68;5.93;;;28.00;91.50;;;;;;4343701;32;20074;-74
2021/07/30 10:20:15;;;;;;;7.68;5.57;;;28.20;92.40;;;;;;4335189;32;20082;-79
2021/07/30 10:23:07;;;;;;;9.63;5.97;;;28.10;92.20;;;;;;4351475;32;20475;-78
2021/07/30 10:25:37;;;;;;;6.40;5.35;;;28.20;87.20;;;;;;4348713;32;20090;-78
2021/07/30 10:28:24;;;;;;;6.25;4.80;;;28.30;88.50;;;;;;4346291;32;20382;-76
2021/07/30 10:30:57;;;;;;;6.82;6.12;;;28.40;86.70;;;;;;4338720;32;20197;-76
2021/07/30 10:33:40;;;;;;;6.65;5.47;;;28.40;88.50;;;;;;4354350;32;20526;-74
2021/07/30 10:36:12;;;;;;;6.70;5.30;;;28.30;83.40;;;;;;4377114;32;20085;-73
2021/07/30 10:42:50;;;;;;;9.07;4.37;;;28.20;84.10;;;;;;3786112;37;20482;-73
2021/07/30 10:49:38;;;;;;;8.88;5.72;;;28.40;81.90;;;;;;3770986;37;20063;-74
2021/07/30 10:52:25;;;;;;;6.45;5.20;;;28.40;81.00;;;;;;4356339;32;20072;-74
2021/07/30 10:54:51;;;;;;;5.53;4.68;;;28.60;79.60;;;;;;4331137;32;20531;-71
2021/07/30 10:57:50;;;;;;;5.95;4.78;;;28.50;78.40;;;;;;4341498;32;20063;-73
2021/07/30 11:00:17;;;;;;;7.35;5.50;;;28.60;79.00;;;;;;4340400;32;20095;-73
2021/07/30 11:03:04;;;;;;;6.90;5.20;;;28.80;75.30;;;;;;4347214;32;20074;-76
2021/07/30 11:05:31;;;;;;;5.75;4.80;;;29.10;75.70;;;;;;4337575;32;20089;-74
2021/07/30 11:08:02;;;;;;;6.32;5.68;;;28.70;76.40;;;;;;4324895;32;20076;-73
2021/07/30 11:10:28;;;;;;;7.18;5.25;;;28.40;75.00;;;;;;4342084;32;20056;-78
2021/07/30 11:12:55;;;;;;;6.20;5.07;;;29.10;73.30;;;;;;4318679;32;20097;-79
2021/07/30 11:15:22;;;;;;;7.12;4.82;;;29.10;71.00;;;;;;4318423;32;20089;-78
2021/07/30 11:17:50;;;;;;;2.92;2.03;;;28.90;73.10;;;;;;4317432;33;20094;-80
2021/07/30 11:20:16;;;;;;;5.93;4.62;;;28.50;71.60;;;;;;4319525;32;20506;-79
2021/07/30 11:22:43;;;;;;;6.57;5.50;;;28.30;74.20;;;;;;4327464;32;20098;-75
2021/07/30 11:25:15;;;;;;;6.60;5.07;;;28.70;72.40;;;;;;4341761;32;20084;-77
2021/07/30 11:28:43;;;;;;;6.37;4.70;;;29.20;71.00;;;;;;4337442;32;20066;-74
2021/07/30 11:32:21;;;;;;;6.65;5.15;;;28.80;69.40;;;;;;4341365;32;20095;-81
2021/07/30 11:35:48;;;;;;;6.25;4.70;;;29.10;68.70;;;;;;4351334;32;20145;-73
2021/07/30 11:38:15;;;;;;;8.45;5.07;;;28.90;65.90;;;;;;4353573;32;20110;-74
2021/07/30 11:40:41;;;;;;;7.72;5.07;;;29.50;64.30;;;;;;4338989;32;20078;-81
2021/07/30 11:43:08;;;;;;;6.75;5.28;;;29.10;65.40;;;;;;4349679;32;20097;-75
2021/07/30 11:45:34;;;;;;;7.12;5.68;;;29.30;64.20;;;;;;4322866;32;20140;-72
2021/07/30 11:48:10;;;;;;;8.05;4.75;;;29.10;64.80;;;;;;4318279;32;20106;-72
2021/07/30 11:50:38;;;;;;;6.05;5.05;;;29.40;63.90;;;;;;4321710;32;20129;-71
2021/07/30 11:53:06;;;;;;;6.95;5.18;;;29.50;62.20;;;;;;4326999;32;20146;-73
2021/07/30 11:55:32;;;;;;;5.32;3.60;;;29.60;61.10;;;;;;4307453;33;20071;-72
2021/07/30 11:58:28;;;;;;;5.85;4.70;;;29.80;58.10;;;;;;4333993;33;20068;-73
2021/07/30 12:01:55;;;;;;;9.52;5.28;;;29.40;60.60;;;;;;4338923;32;20169;-73
2021/07/30 12:05:47;;;;;;;8.77;6.30;;;30.10;57.80;;;;;;4342340;32;20091;-73
2021/07/30 12:09:15;;;;;;;7.60;4.47;;;29.60;60.40;;;;;;4348452;32;20128;-71
2021/07/30 12:11:56;;;;;;;7.20;5.65;;;29.60;61.40;;;;;;4351977;32;20090;-72
2021/07/30 12:14:24;;;;;;;8.40;5.00;;;30.00;58.30;;;;;;4312212;32;20166;-77
2021/07/30 12:16:50;;;;;;;6.80;5.12;;;30.10;55.40;;;;;;4315889;33;20091;-77
2021/07/30 12:19:30;;;;;;;7.07;4.43;;;30.10;54.20;;;;;;4312059;33;20087;-71
2021/07/30 12:22:04;;;;;;;5.97;4.57;;;30.10;54.50;;;;;;4294814;33;20129;-69
2021/07/30 12:24:31;;;;;;;6.78;5.28;;;29.70;56.00;;;;;;4310325;33;20590;-71
2021/07/30 12:26:58;;;;;;;5.50;4.62;;;29.50;55.60;;;;;;4307988;33;20087;-69
2021/07/30 12:29:42;;;;;;;6.40;4.93;;;29.80;54.60;;;;;;4309327;33;20086;-70
2021/07/30 12:32:36;;;;;;;6.53;4.32;;;30.30;54.30;;;;;;4309636;33;20161;-70
2021/07/30 12:35:14;;;;;;;5.70;4.70;;;30.20;57.80;;;;;;4322484;33;20150;-71
2021/07/30 12:38:06;;;;;;;6.82;4.45;;;30.40;55.70;;;;;;4322596;33;20059;-70
2021/07/30 12:40:38;;;;;;;6.05;4.65;;;30.40;54.30;;;;;;4321564;33;20098;-69
2021/07/30 12:43:18;;;;;;;6.85;5.37;;;30.20;54.10;;;;;;4310592;33;20063;-70
2021/07/30 12:45:51;;;;;;;5.32;4.28;;;29.70;55.30;;;;;;4345703;33;20172;-71
2021/07/30 12:48:21;;;;;;;6.57;5.03;;;29.80;57.50;;;;;;4321281;33;20098;-71
2021/07/30 12:50:49;;;;;;;7.90;4.93;;;29.80;55.80;;;;;;4322205;33;20082;-71
2021/07/30 12:53:24;;;;;;;7.35;5.72;;;29.80;55.30;;;;;;4322251;33;20171;-70
2021/07/30 12:56:07;;;;;;;7.82;5.50;;;29.90;55.90;;;;;;4321940;33;20090;-71
2021/07/30 12:58:37;;;;;;;6.82;4.90;;;30.20;55.00;;;;;;4310257;33;20082;-71
2021/07/30 13:01:13;;;;;;;6.85;4.87;;;30.10;53.80;;;;;;4334055;33;20085;-71
2021/07/30 13:03:41;;;;;;;6.87;4.85;;;30.00;55.90;;;;;;4309893;33;20069;-71
2021/07/30 13:06:15;;;;;;;6.72;5.30;;;29.90;55.50;;;;;;4322000;33;20146;-71
2021/07/30 13:08:41;;;;;;;7.25;4.60;;;29.60;54.00;;;;;;4322120;33;20568;-71
2021/07/30 13:11:07;;;;;;;7.10;4.68;;;30.00;56.00;;;;;;4309511;33;20192;-71